﻿<?xml version="1.0" encoding="UTF-8" standalone="no" ?>
<gpx xmlns="http://www.topografix.com/GPX/1/1" creator="CompeGPS" version="1.1" xmlns:xsi="http://www.w3.org/2001/XMLSchema-instance" xsi:schemaLocation="http://www.topografix.com/GPX/1/1 http://www.topografix.com/GPX/1/1/gpx.xsd http://www.garmin.com/xmlschemas/GpxExtensions/v3 http://www.garmin.com/xmlschemas/GpxExtensionsv3.xsd http://www.garmin.com/xmlschemas/TrackPointExtension/v1 http://www.garmin.com/xmlschemas/TrackPointExtensionv1.xsd" xmlns:gpxtpx="http://www.garmin.com/xmlschemas/TrackPointExtension/v1">
  <metadata>
    <link href="http://www.compegps.com">
      <text>CompeGPS TEAM, SL</text>
    </link>
    <time>2015-03-20T22:06:22Z</time>
    <bounds maxlat="42.421844" maxlon="2.263867" minlat="42.413276" minlon="2.252578"/>
  </metadata>
  <trk>
    <name>canal_estretat</name>
    <trkseg>
      <trkpt lat="42.421844" lon="2.263837">
        <ele>2098.4</ele>
        <time>2015-01-04T06:42:45Z</time>
      </trkpt>
      <trkpt lat="42.421842" lon="2.263836">
        <ele>2098.4</ele>
        <time>2015-01-04T06:42:46Z</time>
      </trkpt>
      <trkpt lat="42.421797" lon="2.263807">
        <ele>2098.2</ele>
        <time>2015-01-04T06:43:06Z</time>
      </trkpt>
      <trkpt lat="42.421658" lon="2.263742">
        <ele>2098.4</ele>
        <time>2015-01-04T06:43:21Z</time>
      </trkpt>
      <trkpt lat="42.421599" lon="2.263734">
        <ele>2097.9</ele>
        <time>2015-01-04T06:43:28Z</time>
      </trkpt>
      <trkpt lat="42.421489" lon="2.263706">
        <ele>2097.9</ele>
        <time>2015-01-04T06:43:44Z</time>
      </trkpt>
      <trkpt lat="42.421456" lon="2.263552">
        <ele>2100.5</ele>
        <time>2015-01-04T06:44:01Z</time>
      </trkpt>
      <trkpt lat="42.421443" lon="2.263391">
        <ele>2101.9</ele>
        <time>2015-01-04T06:44:17Z</time>
      </trkpt>
      <trkpt lat="42.421398" lon="2.263261">
        <ele>2103.3</ele>
        <time>2015-01-04T06:44:31Z</time>
      </trkpt>
      <trkpt lat="42.421373" lon="2.263096">
        <ele>2105.2</ele>
        <time>2015-01-04T06:44:47Z</time>
      </trkpt>
      <trkpt lat="42.421299" lon="2.262944">
        <ele>2108.3</ele>
        <time>2015-01-04T06:45:03Z</time>
      </trkpt>
      <trkpt lat="42.421194" lon="2.262746">
        <ele>2110.7</ele>
        <time>2015-01-04T06:45:23Z</time>
      </trkpt>
      <trkpt lat="42.421116" lon="2.262590">
        <ele>2110.9</ele>
        <time>2015-01-04T06:45:40Z</time>
      </trkpt>
      <trkpt lat="42.421042" lon="2.262443">
        <ele>2114.0</ele>
        <time>2015-01-04T06:45:59Z</time>
      </trkpt>
      <trkpt lat="42.420990" lon="2.262321">
        <ele>2115.5</ele>
        <time>2015-01-04T06:46:14Z</time>
      </trkpt>
      <trkpt lat="42.420929" lon="2.262206">
        <ele>2118.2</ele>
        <time>2015-01-04T06:46:31Z</time>
      </trkpt>
      <trkpt lat="42.420846" lon="2.262108">
        <ele>2121.4</ele>
        <time>2015-01-04T06:46:49Z</time>
      </trkpt>
      <trkpt lat="42.420794" lon="2.261999">
        <ele>2124.4</ele>
        <time>2015-01-04T06:47:04Z</time>
      </trkpt>
      <trkpt lat="42.420773" lon="2.261902">
        <ele>2127.4</ele>
        <time>2015-01-04T06:47:18Z</time>
      </trkpt>
      <trkpt lat="42.420729" lon="2.261824">
        <ele>2130.5</ele>
        <time>2015-01-04T06:47:37Z</time>
      </trkpt>
      <trkpt lat="42.420754" lon="2.261683">
        <ele>2134.0</ele>
        <time>2015-01-04T06:48:08Z</time>
      </trkpt>
      <trkpt lat="42.420800" lon="2.261634">
        <ele>2136.2</ele>
        <time>2015-01-04T06:48:25Z</time>
      </trkpt>
      <trkpt lat="42.420807" lon="2.261571">
        <ele>2139.4</ele>
        <time>2015-01-04T06:48:39Z</time>
      </trkpt>
      <trkpt lat="42.420830" lon="2.261512">
        <ele>2142.5</ele>
        <time>2015-01-04T06:48:53Z</time>
      </trkpt>
      <trkpt lat="42.420871" lon="2.261431">
        <ele>2144.7</ele>
        <time>2015-01-04T06:49:12Z</time>
      </trkpt>
      <trkpt lat="42.420865" lon="2.261380">
        <ele>2147.1</ele>
        <time>2015-01-04T06:49:27Z</time>
      </trkpt>
      <trkpt lat="42.420874" lon="2.261297">
        <ele>2150.1</ele>
        <time>2015-01-04T06:49:43Z</time>
      </trkpt>
      <trkpt lat="42.420834" lon="2.261235">
        <ele>2152.5</ele>
        <time>2015-01-04T06:50:01Z</time>
      </trkpt>
      <trkpt lat="42.420801" lon="2.261156">
        <ele>2155.1</ele>
        <time>2015-01-04T06:50:20Z</time>
      </trkpt>
      <trkpt lat="42.420820" lon="2.261072">
        <ele>2157.4</ele>
        <time>2015-01-04T06:50:36Z</time>
      </trkpt>
      <trkpt lat="42.420836" lon="2.260995">
        <ele>2161.5</ele>
        <time>2015-01-04T06:56:31Z</time>
      </trkpt>
      <trkpt lat="42.420812" lon="2.260921">
        <ele>2162.9</ele>
        <time>2015-01-04T06:56:55Z</time>
      </trkpt>
      <trkpt lat="42.420731" lon="2.260825">
        <ele>2165.9</ele>
        <time>2015-01-04T06:57:14Z</time>
      </trkpt>
      <trkpt lat="42.420703" lon="2.260741">
        <ele>2169.0</ele>
        <time>2015-01-04T06:57:28Z</time>
      </trkpt>
      <trkpt lat="42.420710" lon="2.260612">
        <ele>2171.4</ele>
        <time>2015-01-04T06:57:44Z</time>
      </trkpt>
      <trkpt lat="42.420731" lon="2.260579">
        <ele>2171.8</ele>
        <time>2015-01-04T06:57:58Z</time>
      </trkpt>
      <trkpt lat="42.420672" lon="2.260463">
        <ele>2172.5</ele>
        <time>2015-01-04T06:58:13Z</time>
      </trkpt>
      <trkpt lat="42.420671" lon="2.260313">
        <ele>2175.0</ele>
        <time>2015-01-04T06:58:28Z</time>
      </trkpt>
      <trkpt lat="42.420666" lon="2.260262">
        <ele>2175.8</ele>
        <time>2015-01-04T06:58:46Z</time>
      </trkpt>
      <trkpt lat="42.420641" lon="2.260177">
        <ele>2175.5</ele>
        <time>2015-01-04T06:59:15Z</time>
      </trkpt>
      <trkpt lat="42.420659" lon="2.260020">
        <ele>2177.9</ele>
        <time>2015-01-04T06:59:36Z</time>
      </trkpt>
      <trkpt lat="42.420604" lon="2.259848">
        <ele>2179.3</ele>
        <time>2015-01-04T06:59:54Z</time>
      </trkpt>
      <trkpt lat="42.420610" lon="2.259602">
        <ele>2180.0</ele>
        <time>2015-01-04T07:00:13Z</time>
      </trkpt>
      <trkpt lat="42.420652" lon="2.259388">
        <ele>2182.0</ele>
        <time>2015-01-04T07:00:33Z</time>
      </trkpt>
      <trkpt lat="42.420659" lon="2.259270">
        <ele>2185.2</ele>
        <time>2015-01-04T07:00:46Z</time>
      </trkpt>
      <trkpt lat="42.420608" lon="2.259195">
        <ele>2186.1</ele>
        <time>2015-01-04T07:00:54Z</time>
      </trkpt>
      <trkpt lat="42.420442" lon="2.259053">
        <ele>2185.3</ele>
        <time>2015-01-04T07:01:12Z</time>
      </trkpt>
      <trkpt lat="42.420358" lon="2.258932">
        <ele>2188.4</ele>
        <time>2015-01-04T07:01:28Z</time>
      </trkpt>
      <trkpt lat="42.420251" lon="2.258851">
        <ele>2190.3</ele>
        <time>2015-01-04T07:01:45Z</time>
      </trkpt>
      <trkpt lat="42.420136" lon="2.258824">
        <ele>2191.0</ele>
        <time>2015-01-04T07:02:00Z</time>
      </trkpt>
      <trkpt lat="42.420010" lon="2.258772">
        <ele>2192.3</ele>
        <time>2015-01-04T07:02:16Z</time>
      </trkpt>
      <trkpt lat="42.419948" lon="2.258804">
        <ele>2191.8</ele>
        <time>2015-01-04T07:02:25Z</time>
      </trkpt>
      <trkpt lat="42.419903" lon="2.258809">
        <ele>2191.4</ele>
        <time>2015-01-04T07:02:29Z</time>
      </trkpt>
      <trkpt lat="42.419834" lon="2.258813">
        <ele>2189.7</ele>
        <time>2015-01-04T07:02:45Z</time>
      </trkpt>
      <trkpt lat="42.419834" lon="2.258805">
        <ele>2190.6</ele>
        <time>2015-01-04T07:03:10Z</time>
      </trkpt>
      <trkpt lat="42.419839" lon="2.258824">
        <ele>2190.8</ele>
        <time>2015-01-04T07:03:36Z</time>
      </trkpt>
      <trkpt lat="42.419812" lon="2.258840">
        <ele>2190.0</ele>
        <time>2015-01-04T07:04:01Z</time>
      </trkpt>
      <trkpt lat="42.419732" lon="2.258851">
        <ele>2188.8</ele>
        <time>2015-01-04T07:04:10Z</time>
      </trkpt>
      <trkpt lat="42.419613" lon="2.258859">
        <ele>2186.9</ele>
        <time>2015-01-04T07:04:26Z</time>
      </trkpt>
      <trkpt lat="42.419577" lon="2.258879">
        <ele>2185.8</ele>
        <time>2015-01-04T07:04:30Z</time>
      </trkpt>
      <trkpt lat="42.419483" lon="2.258870">
        <ele>2182.7</ele>
        <time>2015-01-04T07:04:45Z</time>
      </trkpt>
      <trkpt lat="42.419371" lon="2.258814">
        <ele>2179.9</ele>
        <time>2015-01-04T07:05:02Z</time>
      </trkpt>
      <trkpt lat="42.419314" lon="2.258706">
        <ele>2181.3</ele>
        <time>2015-01-04T07:05:21Z</time>
      </trkpt>
      <trkpt lat="42.419257" lon="2.258628">
        <ele>2183.9</ele>
        <time>2015-01-04T07:05:36Z</time>
      </trkpt>
      <trkpt lat="42.419176" lon="2.258551">
        <ele>2186.6</ele>
        <time>2015-01-04T07:05:56Z</time>
      </trkpt>
      <trkpt lat="42.419069" lon="2.258499">
        <ele>2188.9</ele>
        <time>2015-01-04T07:06:18Z</time>
      </trkpt>
      <trkpt lat="42.418978" lon="2.258547">
        <ele>2192.0</ele>
        <time>2015-01-04T07:06:33Z</time>
      </trkpt>
      <trkpt lat="42.418926" lon="2.258584">
        <ele>2193.7</ele>
        <time>2015-01-04T07:06:49Z</time>
      </trkpt>
      <trkpt lat="42.418674" lon="2.258487">
        <ele>2207.0</ele>
        <time>2015-01-04T07:10:54Z</time>
      </trkpt>
      <trkpt lat="42.418474" lon="2.258406">
        <ele>2207.5</ele>
        <time>2015-01-04T07:14:09Z</time>
      </trkpt>
      <trkpt lat="42.418274" lon="2.258324">
        <ele>2207.9</ele>
        <time>2015-01-04T07:17:23Z</time>
      </trkpt>
      <trkpt lat="42.418033" lon="2.258291">
        <ele>2206.9</ele>
        <time>2015-01-04T07:21:07Z</time>
      </trkpt>
      <trkpt lat="42.417772" lon="2.258283">
        <ele>2204.9</ele>
        <time>2015-01-04T07:25:09Z</time>
      </trkpt>
      <trkpt lat="42.417551" lon="2.258226">
        <ele>2204.1</ele>
        <time>2015-01-04T07:28:36Z</time>
      </trkpt>
      <trkpt lat="42.417332" lon="2.258143">
        <ele>2206.1</ele>
        <time>2015-01-04T07:32:04Z</time>
      </trkpt>
      <trkpt lat="42.417114" lon="2.258047">
        <ele>2209.2</ele>
        <time>2015-01-04T07:35:32Z</time>
      </trkpt>
      <trkpt lat="42.416895" lon="2.257950">
        <ele>2212.7</ele>
        <time>2015-01-04T07:38:58Z</time>
      </trkpt>
      <trkpt lat="42.416675" lon="2.257893">
        <ele>2215.4</ele>
        <time>2015-01-04T07:42:17Z</time>
      </trkpt>
      <trkpt lat="42.416455" lon="2.257836">
        <ele>2221.5</ele>
        <time>2015-01-04T07:45:34Z</time>
      </trkpt>
      <trkpt lat="42.416284" lon="2.257757">
        <ele>2226.1</ele>
        <time>2015-01-04T07:48:10Z</time>
      </trkpt>
      <trkpt lat="42.416145" lon="2.257721">
        <ele>2229.4</ele>
        <time>2015-01-04T07:50:12Z</time>
      </trkpt>
      <trkpt lat="42.416054" lon="2.257660">
        <ele>2231.6</ele>
        <time>2015-01-04T07:51:38Z</time>
      </trkpt>
      <trkpt lat="42.415944" lon="2.257685">
        <ele>2233.7</ele>
        <time>2015-01-04T07:53:12Z</time>
      </trkpt>
      <trkpt lat="42.415809" lon="2.257708">
        <ele>2238.2</ele>
        <time>2015-01-04T07:55:07Z</time>
      </trkpt>
      <trkpt lat="42.415646" lon="2.257695">
        <ele>2253.9</ele>
        <time>2015-01-04T07:57:23Z</time>
      </trkpt>
      <trkpt lat="42.415548" lon="2.257661">
        <ele>2263.2</ele>
        <time>2015-01-04T07:58:46Z</time>
      </trkpt>
      <trkpt lat="42.415423" lon="2.257685">
        <ele>2275.6</ele>
        <time>2015-01-04T08:00:30Z</time>
      </trkpt>
      <trkpt lat="42.415263" lon="2.257706">
        <ele>2291.1</ele>
        <time>2015-01-04T08:02:40Z</time>
      </trkpt>
      <trkpt lat="42.415090" lon="2.257698">
        <ele>2307.8</ele>
        <time>2015-01-04T08:04:59Z</time>
      </trkpt>
      <trkpt lat="42.414907" lon="2.257697">
        <ele>2326.8</ele>
        <time>2015-01-04T08:07:23Z</time>
      </trkpt>
      <trkpt lat="42.414723" lon="2.257709">
        <ele>2347.6</ele>
        <time>2015-01-04T08:09:45Z</time>
      </trkpt>
      <trkpt lat="42.414539" lon="2.257728">
        <ele>2368.0</ele>
        <time>2015-01-04T08:12:04Z</time>
      </trkpt>
      <trkpt lat="42.414351" lon="2.257813">
        <ele>2389.3</ele>
        <time>2015-01-04T08:14:30Z</time>
      </trkpt>
      <trkpt lat="42.414148" lon="2.257910">
        <ele>2410.9</ele>
        <time>2015-01-04T08:17:06Z</time>
      </trkpt>
      <trkpt lat="42.414000" lon="2.257999">
        <ele>2423.7</ele>
        <time>2015-01-04T08:19:01Z</time>
      </trkpt>
      <trkpt lat="42.413873" lon="2.258084">
        <ele>2434.8</ele>
        <time>2015-01-04T08:20:40Z</time>
      </trkpt>
      <trkpt lat="42.413683" lon="2.258207">
        <ele>2451.5</ele>
        <time>2015-01-04T08:21:57Z</time>
      </trkpt>
      <trkpt lat="42.413535" lon="2.258290">
        <ele>2464.9</ele>
        <time>2015-01-04T08:23:44Z</time>
      </trkpt>
      <trkpt lat="42.413477" lon="2.258574">
        <ele>2470.1</ele>
        <time>2015-01-04T08:26:49Z</time>
      </trkpt>
      <trkpt lat="42.413430" lon="2.258822">
        <ele>2473.6</ele>
        <time>2015-01-04T08:27:53Z</time>
      </trkpt>
      <trkpt lat="42.413418" lon="2.258974">
        <ele>2474.5</ele>
        <time>2015-01-04T08:28:40Z</time>
      </trkpt>
      <trkpt lat="42.413403" lon="2.259075">
        <ele>2475.4</ele>
        <time>2015-01-04T08:29:38Z</time>
      </trkpt>
      <trkpt lat="42.413397" lon="2.259201">
        <ele>2475.6</ele>
        <time>2015-01-04T08:30:44Z</time>
      </trkpt>
      <trkpt lat="42.413409" lon="2.259341">
        <ele>2474.0</ele>
        <time>2015-01-04T08:31:44Z</time>
      </trkpt>
      <trkpt lat="42.413362" lon="2.259483">
        <ele>2476.6</ele>
        <time>2015-01-04T08:32:43Z</time>
      </trkpt>
      <trkpt lat="42.413335" lon="2.259573">
        <ele>2477.9</ele>
        <time>2015-01-04T08:33:44Z</time>
      </trkpt>
      <trkpt lat="42.413310" lon="2.259622">
        <ele>2479.1</ele>
        <time>2015-01-04T08:34:47Z</time>
      </trkpt>
      <trkpt lat="42.413289" lon="2.259682">
        <ele>2480.0</ele>
        <time>2015-01-04T08:35:37Z</time>
      </trkpt>
      <trkpt lat="42.413276" lon="2.259729">
        <ele>2566.5</ele>
        <time>2015-01-04T08:36:25Z</time>
      </trkpt>
      <trkpt lat="42.413311" lon="2.259604">
        <ele>2573.1</ele>
        <time>2015-01-04T08:41:28Z</time>
      </trkpt>
      <trkpt lat="42.413344" lon="2.259553">
        <ele>2571.4</ele>
        <time>2015-01-04T08:43:35Z</time>
      </trkpt>
      <trkpt lat="42.413361" lon="2.259505">
        <ele>2568.1</ele>
        <time>2015-01-04T08:43:40Z</time>
      </trkpt>
      <trkpt lat="42.413376" lon="2.259439">
        <ele>2566.2</ele>
        <time>2015-01-04T08:43:46Z</time>
      </trkpt>
      <trkpt lat="42.413404" lon="2.259340">
        <ele>2569.4</ele>
        <time>2015-01-04T08:44:09Z</time>
      </trkpt>
      <trkpt lat="42.413391" lon="2.259288">
        <ele>2567.6</ele>
        <time>2015-01-04T08:44:21Z</time>
      </trkpt>
      <trkpt lat="42.413393" lon="2.259253">
        <ele>2564.3</ele>
        <time>2015-01-04T08:44:27Z</time>
      </trkpt>
      <trkpt lat="42.413399" lon="2.259231">
        <ele>2561.2</ele>
        <time>2015-01-04T08:44:30Z</time>
      </trkpt>
      <trkpt lat="42.413399" lon="2.259220">
        <ele>2557.2</ele>
        <time>2015-01-04T08:44:33Z</time>
      </trkpt>
      <trkpt lat="42.413400" lon="2.259185">
        <ele>2561.0</ele>
        <time>2015-01-04T08:45:25Z</time>
      </trkpt>
      <trkpt lat="42.413397" lon="2.259175">
        <ele>2562.3</ele>
        <time>2015-01-04T08:45:28Z</time>
      </trkpt>
      <trkpt lat="42.413401" lon="2.259147">
        <ele>2558.3</ele>
        <time>2015-01-04T08:45:33Z</time>
      </trkpt>
      <trkpt lat="42.413388" lon="2.259096">
        <ele>2558.6</ele>
        <time>2015-01-04T08:58:25Z</time>
      </trkpt>
      <trkpt lat="42.413386" lon="2.259092">
        <ele>2558.1</ele>
        <time>2015-01-04T08:58:54Z</time>
      </trkpt>
      <trkpt lat="42.413384" lon="2.259097">
        <ele>2556.0</ele>
        <time>2015-01-04T08:59:31Z</time>
      </trkpt>
      <trkpt lat="42.413403" lon="2.259013">
        <ele>2556.3</ele>
        <time>2015-01-04T08:59:47Z</time>
      </trkpt>
      <trkpt lat="42.413425" lon="2.258930">
        <ele>2553.4</ele>
        <time>2015-01-04T09:00:05Z</time>
      </trkpt>
      <trkpt lat="42.413407" lon="2.258892">
        <ele>2551.7</ele>
        <time>2015-01-04T09:00:21Z</time>
      </trkpt>
      <trkpt lat="42.413419" lon="2.258816">
        <ele>2549.4</ele>
        <time>2015-01-04T09:00:40Z</time>
      </trkpt>
      <trkpt lat="42.413452" lon="2.258702">
        <ele>2549.0</ele>
        <time>2015-01-04T09:00:54Z</time>
      </trkpt>
      <trkpt lat="42.413475" lon="2.258597">
        <ele>2545.5</ele>
        <time>2015-01-04T09:01:09Z</time>
      </trkpt>
      <trkpt lat="42.413475" lon="2.258547">
        <ele>2543.3</ele>
        <time>2015-01-04T09:01:14Z</time>
      </trkpt>
      <trkpt lat="42.413504" lon="2.258377">
        <ele>2543.4</ele>
        <time>2015-01-04T09:01:31Z</time>
      </trkpt>
      <trkpt lat="42.413552" lon="2.258175">
        <ele>2542.4</ele>
        <time>2015-01-04T09:01:50Z</time>
      </trkpt>
      <trkpt lat="42.413564" lon="2.258142">
        <ele>2542.3</ele>
        <time>2015-01-04T09:02:08Z</time>
      </trkpt>
      <trkpt lat="42.413568" lon="2.258050">
        <ele>2539.1</ele>
        <time>2015-01-04T09:02:22Z</time>
      </trkpt>
      <trkpt lat="42.413573" lon="2.258030">
        <ele>2535.6</ele>
        <time>2015-01-04T09:02:26Z</time>
      </trkpt>
      <trkpt lat="42.413594" lon="2.257954">
        <ele>2533.7</ele>
        <time>2015-01-04T09:02:42Z</time>
      </trkpt>
      <trkpt lat="42.413600" lon="2.257928">
        <ele>2530.0</ele>
        <time>2015-01-04T09:02:46Z</time>
      </trkpt>
      <trkpt lat="42.413599" lon="2.257856">
        <ele>2531.1</ele>
        <time>2015-01-04T09:02:57Z</time>
      </trkpt>
      <trkpt lat="42.413632" lon="2.257735">
        <ele>2528.0</ele>
        <time>2015-01-04T09:03:08Z</time>
      </trkpt>
      <trkpt lat="42.413633" lon="2.257723">
        <ele>2527.5</ele>
        <time>2015-01-04T09:03:09Z</time>
      </trkpt>
      <trkpt lat="42.413637" lon="2.257694">
        <ele>2526.8</ele>
        <time>2015-01-04T09:03:11Z</time>
      </trkpt>
      <trkpt lat="42.413646" lon="2.257657">
        <ele>2525.9</ele>
        <time>2015-01-04T09:03:15Z</time>
      </trkpt>
      <trkpt lat="42.413653" lon="2.257623">
        <ele>2524.5</ele>
        <time>2015-01-04T09:03:18Z</time>
      </trkpt>
      <trkpt lat="42.413661" lon="2.257573">
        <ele>2522.9</ele>
        <time>2015-01-04T09:03:22Z</time>
      </trkpt>
      <trkpt lat="42.413662" lon="2.257522">
        <ele>2526.3</ele>
        <time>2015-01-04T09:03:27Z</time>
      </trkpt>
      <trkpt lat="42.413676" lon="2.257496">
        <ele>2530.0</ele>
        <time>2015-01-04T09:03:31Z</time>
      </trkpt>
      <trkpt lat="42.413693" lon="2.257431">
        <ele>2533.1</ele>
        <time>2015-01-04T09:03:39Z</time>
      </trkpt>
      <trkpt lat="42.413705" lon="2.257309">
        <ele>2530.8</ele>
        <time>2015-01-04T09:03:53Z</time>
      </trkpt>
      <trkpt lat="42.413706" lon="2.257189">
        <ele>2529.2</ele>
        <time>2015-01-04T09:04:13Z</time>
      </trkpt>
      <trkpt lat="42.413707" lon="2.257095">
        <ele>2526.4</ele>
        <time>2015-01-04T09:04:31Z</time>
      </trkpt>
      <trkpt lat="42.413687" lon="2.257045">
        <ele>2522.6</ele>
        <time>2015-01-04T09:04:39Z</time>
      </trkpt>
      <trkpt lat="42.413685" lon="2.257034">
        <ele>2519.6</ele>
        <time>2015-01-04T09:04:41Z</time>
      </trkpt>
      <trkpt lat="42.413685" lon="2.257017">
        <ele>2517.3</ele>
        <time>2015-01-04T09:04:43Z</time>
      </trkpt>
      <trkpt lat="42.413677" lon="2.256981">
        <ele>2515.0</ele>
        <time>2015-01-04T09:04:46Z</time>
      </trkpt>
      <trkpt lat="42.413668" lon="2.256942">
        <ele>2511.0</ele>
        <time>2015-01-04T09:04:49Z</time>
      </trkpt>
      <trkpt lat="42.413667" lon="2.256935">
        <ele>2508.0</ele>
        <time>2015-01-04T09:04:52Z</time>
      </trkpt>
      <trkpt lat="42.413668" lon="2.256934">
        <ele>2511.4</ele>
        <time>2015-01-04T09:04:55Z</time>
      </trkpt>
      <trkpt lat="42.413672" lon="2.256932">
        <ele>2515.1</ele>
        <time>2015-01-04T09:04:58Z</time>
      </trkpt>
      <trkpt lat="42.413669" lon="2.256923">
        <ele>2516.4</ele>
        <time>2015-01-04T09:05:01Z</time>
      </trkpt>
      <trkpt lat="42.413670" lon="2.256773">
        <ele>2514.3</ele>
        <time>2015-01-04T09:05:16Z</time>
      </trkpt>
      <trkpt lat="42.413681" lon="2.256751">
        <ele>2514.7</ele>
        <time>2015-01-04T09:05:31Z</time>
      </trkpt>
      <trkpt lat="42.413676" lon="2.256670">
        <ele>2515.6</ele>
        <time>2015-01-04T09:05:48Z</time>
      </trkpt>
      <trkpt lat="42.413669" lon="2.256541">
        <ele>2513.0</ele>
        <time>2015-01-04T09:06:03Z</time>
      </trkpt>
      <trkpt lat="42.413668" lon="2.256532">
        <ele>2512.4</ele>
        <time>2015-01-04T09:06:05Z</time>
      </trkpt>
      <trkpt lat="42.413656" lon="2.256461">
        <ele>2509.3</ele>
        <time>2015-01-04T09:06:14Z</time>
      </trkpt>
      <trkpt lat="42.413643" lon="2.256438">
        <ele>2512.6</ele>
        <time>2015-01-04T09:06:22Z</time>
      </trkpt>
      <trkpt lat="42.413609" lon="2.256371">
        <ele>2512.8</ele>
        <time>2015-01-04T09:06:36Z</time>
      </trkpt>
      <trkpt lat="42.413598" lon="2.256353">
        <ele>2509.5</ele>
        <time>2015-01-04T09:06:39Z</time>
      </trkpt>
      <trkpt lat="42.413581" lon="2.256286">
        <ele>2512.7</ele>
        <time>2015-01-04T09:06:49Z</time>
      </trkpt>
      <trkpt lat="42.413579" lon="2.256260">
        <ele>2516.0</ele>
        <time>2015-01-04T09:06:53Z</time>
      </trkpt>
      <trkpt lat="42.413582" lon="2.256203">
        <ele>2511.7</ele>
        <time>2015-01-04T09:07:00Z</time>
      </trkpt>
      <trkpt lat="42.413587" lon="2.256184">
        <ele>2507.7</ele>
        <time>2015-01-04T09:07:03Z</time>
      </trkpt>
      <trkpt lat="42.413588" lon="2.256109">
        <ele>2510.9</ele>
        <time>2015-01-04T09:07:14Z</time>
      </trkpt>
      <trkpt lat="42.413596" lon="2.256069">
        <ele>2514.5</ele>
        <time>2015-01-04T09:07:19Z</time>
      </trkpt>
      <trkpt lat="42.413599" lon="2.256050">
        <ele>2515.6</ele>
        <time>2015-01-04T09:07:21Z</time>
      </trkpt>
      <trkpt lat="42.413592" lon="2.255980">
        <ele>2512.3</ele>
        <time>2015-01-04T09:07:27Z</time>
      </trkpt>
      <trkpt lat="42.413580" lon="2.255850">
        <ele>2509.2</ele>
        <time>2015-01-04T09:07:40Z</time>
      </trkpt>
      <trkpt lat="42.413572" lon="2.255812">
        <ele>2511.7</ele>
        <time>2015-01-04T09:07:54Z</time>
      </trkpt>
      <trkpt lat="42.413572" lon="2.255812">
        <ele>2514.9</ele>
        <time>2015-01-04T09:07:59Z</time>
      </trkpt>
      <trkpt lat="42.413577" lon="2.255744">
        <ele>2511.1</ele>
        <time>2015-01-04T09:08:10Z</time>
      </trkpt>
      <trkpt lat="42.413574" lon="2.255721">
        <ele>2510.2</ele>
        <time>2015-01-04T09:08:12Z</time>
      </trkpt>
      <trkpt lat="42.413577" lon="2.255681">
        <ele>2514.5</ele>
        <time>2015-01-04T09:08:15Z</time>
      </trkpt>
      <trkpt lat="42.413572" lon="2.255587">
        <ele>2510.1</ele>
        <time>2015-01-04T09:08:22Z</time>
      </trkpt>
      <trkpt lat="42.413572" lon="2.255557">
        <ele>2506.6</ele>
        <time>2015-01-04T09:08:24Z</time>
      </trkpt>
      <trkpt lat="42.413580" lon="2.255516">
        <ele>2503.2</ele>
        <time>2015-01-04T09:08:27Z</time>
      </trkpt>
      <trkpt lat="42.413582" lon="2.255503">
        <ele>2503.1</ele>
        <time>2015-01-04T09:08:28Z</time>
      </trkpt>
      <trkpt lat="42.413581" lon="2.255490">
        <ele>2503.7</ele>
        <time>2015-01-04T09:08:29Z</time>
      </trkpt>
      <trkpt lat="42.413578" lon="2.255366">
        <ele>2500.1</ele>
        <time>2015-01-04T09:08:39Z</time>
      </trkpt>
      <trkpt lat="42.413576" lon="2.255327">
        <ele>2497.0</ele>
        <time>2015-01-04T09:08:43Z</time>
      </trkpt>
      <trkpt lat="42.413585" lon="2.255274">
        <ele>2494.1</ele>
        <time>2015-01-04T09:08:49Z</time>
      </trkpt>
      <trkpt lat="42.413580" lon="2.255211">
        <ele>2498.2</ele>
        <time>2015-01-04T09:08:55Z</time>
      </trkpt>
      <trkpt lat="42.413574" lon="2.255193">
        <ele>2501.9</ele>
        <time>2015-01-04T09:08:57Z</time>
      </trkpt>
      <trkpt lat="42.413563" lon="2.255165">
        <ele>2506.0</ele>
        <time>2015-01-04T09:09:00Z</time>
      </trkpt>
      <trkpt lat="42.413573" lon="2.255136">
        <ele>2509.9</ele>
        <time>2015-01-04T09:09:05Z</time>
      </trkpt>
      <trkpt lat="42.413579" lon="2.255112">
        <ele>2513.1</ele>
        <time>2015-01-04T09:09:07Z</time>
      </trkpt>
      <trkpt lat="42.413585" lon="2.255073">
        <ele>2517.4</ele>
        <time>2015-01-04T09:09:10Z</time>
      </trkpt>
      <trkpt lat="42.413590" lon="2.255024">
        <ele>2520.6</ele>
        <time>2015-01-04T09:09:14Z</time>
      </trkpt>
      <trkpt lat="42.413582" lon="2.254872">
        <ele>2515.4</ele>
        <time>2015-01-04T09:09:39Z</time>
      </trkpt>
      <trkpt lat="42.413571" lon="2.254818">
        <ele>2511.2</ele>
        <time>2015-01-04T09:09:45Z</time>
      </trkpt>
      <trkpt lat="42.413577" lon="2.254797">
        <ele>2507.0</ele>
        <time>2015-01-04T09:09:47Z</time>
      </trkpt>
      <trkpt lat="42.413580" lon="2.254773">
        <ele>2503.5</ele>
        <time>2015-01-04T09:09:49Z</time>
      </trkpt>
      <trkpt lat="42.413569" lon="2.254739">
        <ele>2499.3</ele>
        <time>2015-01-04T09:09:52Z</time>
      </trkpt>
      <trkpt lat="42.413480" lon="2.254681">
        <ele>2519.7</ele>
        <time>2015-01-04T09:10:25Z</time>
      </trkpt>
      <trkpt lat="42.413463" lon="2.254646">
        <ele>2515.5</ele>
        <time>2015-01-04T09:10:29Z</time>
      </trkpt>
      <trkpt lat="42.413455" lon="2.254635">
        <ele>2512.3</ele>
        <time>2015-01-04T09:10:31Z</time>
      </trkpt>
      <trkpt lat="42.413450" lon="2.254609">
        <ele>2509.2</ele>
        <time>2015-01-04T09:10:35Z</time>
      </trkpt>
      <trkpt lat="42.413420" lon="2.254566">
        <ele>2512.3</ele>
        <time>2015-01-04T09:10:40Z</time>
      </trkpt>
      <trkpt lat="42.413398" lon="2.254491">
        <ele>2511.5</ele>
        <time>2015-01-04T09:10:45Z</time>
      </trkpt>
      <trkpt lat="42.413404" lon="2.254449">
        <ele>2507.7</ele>
        <time>2015-01-04T09:10:48Z</time>
      </trkpt>
      <trkpt lat="42.413392" lon="2.254395">
        <ele>2505.0</ele>
        <time>2015-01-04T09:10:52Z</time>
      </trkpt>
      <trkpt lat="42.413389" lon="2.254293">
        <ele>2508.8</ele>
        <time>2015-01-04T09:11:00Z</time>
      </trkpt>
      <trkpt lat="42.413382" lon="2.254264">
        <ele>2512.9</ele>
        <time>2015-01-04T09:11:02Z</time>
      </trkpt>
      <trkpt lat="42.413378" lon="2.254250">
        <ele>2515.0</ele>
        <time>2015-01-04T09:11:03Z</time>
      </trkpt>
      <trkpt lat="42.413362" lon="2.254206">
        <ele>2520.2</ele>
        <time>2015-01-04T09:11:07Z</time>
      </trkpt>
      <trkpt lat="42.413359" lon="2.254192">
        <ele>2520.1</ele>
        <time>2015-01-04T09:11:08Z</time>
      </trkpt>
      <trkpt lat="42.413349" lon="2.254166">
        <ele>2516.2</ele>
        <time>2015-01-04T09:11:10Z</time>
      </trkpt>
      <trkpt lat="42.413348" lon="2.254145">
        <ele>2510.7</ele>
        <time>2015-01-04T09:11:12Z</time>
      </trkpt>
      <trkpt lat="42.413349" lon="2.254133">
        <ele>2506.7</ele>
        <time>2015-01-04T09:11:13Z</time>
      </trkpt>
      <trkpt lat="42.413347" lon="2.254119">
        <ele>2505.3</ele>
        <time>2015-01-04T09:11:14Z</time>
      </trkpt>
      <trkpt lat="42.413337" lon="2.254070">
        <ele>2502.7</ele>
        <time>2015-01-04T09:11:18Z</time>
      </trkpt>
      <trkpt lat="42.413339" lon="2.254010">
        <ele>2507.0</ele>
        <time>2015-01-04T09:11:23Z</time>
      </trkpt>
      <trkpt lat="42.413332" lon="2.253984">
        <ele>2511.3</ele>
        <time>2015-01-04T09:11:25Z</time>
      </trkpt>
      <trkpt lat="42.413324" lon="2.253945">
        <ele>2514.8</ele>
        <time>2015-01-04T09:11:28Z</time>
      </trkpt>
      <trkpt lat="42.413331" lon="2.253913">
        <ele>2510.9</ele>
        <time>2015-01-04T09:11:32Z</time>
      </trkpt>
      <trkpt lat="42.413339" lon="2.253899">
        <ele>2506.7</ele>
        <time>2015-01-04T09:11:34Z</time>
      </trkpt>
      <trkpt lat="42.413347" lon="2.253879">
        <ele>2502.6</ele>
        <time>2015-01-04T09:11:36Z</time>
      </trkpt>
      <trkpt lat="42.413352" lon="2.253871">
        <ele>2501.2</ele>
        <time>2015-01-04T09:11:37Z</time>
      </trkpt>
      <trkpt lat="42.413352" lon="2.253811">
        <ele>2501.8</ele>
        <time>2015-01-04T09:11:42Z</time>
      </trkpt>
      <trkpt lat="42.413359" lon="2.253787">
        <ele>2503.1</ele>
        <time>2015-01-04T09:11:44Z</time>
      </trkpt>
      <trkpt lat="42.413380" lon="2.253726">
        <ele>2499.8</ele>
        <time>2015-01-04T09:11:49Z</time>
      </trkpt>
      <trkpt lat="42.413401" lon="2.253598">
        <ele>2498.3</ele>
        <time>2015-01-04T09:12:02Z</time>
      </trkpt>
      <trkpt lat="42.413380" lon="2.253525">
        <ele>2505.8</ele>
        <time>2015-01-04T09:12:16Z</time>
      </trkpt>
      <trkpt lat="42.413359" lon="2.253525">
        <ele>2508.9</ele>
        <time>2015-01-04T09:12:19Z</time>
      </trkpt>
      <trkpt lat="42.413332" lon="2.253466">
        <ele>2505.5</ele>
        <time>2015-01-04T09:12:28Z</time>
      </trkpt>
      <trkpt lat="42.413330" lon="2.253339">
        <ele>2504.8</ele>
        <time>2015-01-04T09:12:42Z</time>
      </trkpt>
      <trkpt lat="42.413330" lon="2.253235">
        <ele>2506.4</ele>
        <time>2015-01-04T09:12:56Z</time>
      </trkpt>
      <trkpt lat="42.413329" lon="2.253198">
        <ele>2508.6</ele>
        <time>2015-01-04T09:13:00Z</time>
      </trkpt>
      <trkpt lat="42.413323" lon="2.253083">
        <ele>2508.7</ele>
        <time>2015-01-04T09:13:14Z</time>
      </trkpt>
      <trkpt lat="42.413286" lon="2.252964">
        <ele>2509.0</ele>
        <time>2015-01-04T09:13:29Z</time>
      </trkpt>
      <trkpt lat="42.413297" lon="2.252918">
        <ele>2505.6</ele>
        <time>2015-01-04T09:13:35Z</time>
      </trkpt>
      <trkpt lat="42.413319" lon="2.252870">
        <ele>2502.1</ele>
        <time>2015-01-04T09:13:42Z</time>
      </trkpt>
      <trkpt lat="42.413319" lon="2.252863">
        <ele>2501.4</ele>
        <time>2015-01-04T09:13:44Z</time>
      </trkpt>
      <trkpt lat="42.413352" lon="2.252805">
        <ele>2498.1</ele>
        <time>2015-01-04T09:13:58Z</time>
      </trkpt>
      <trkpt lat="42.413365" lon="2.252775">
        <ele>2494.5</ele>
        <time>2015-01-04T09:14:04Z</time>
      </trkpt>
      <trkpt lat="42.413384" lon="2.252754">
        <ele>2491.8</ele>
        <time>2015-01-04T09:14:09Z</time>
      </trkpt>
      <trkpt lat="42.413394" lon="2.252745">
        <ele>2495.0</ele>
        <time>2015-01-04T09:14:13Z</time>
      </trkpt>
      <trkpt lat="42.413408" lon="2.252736">
        <ele>2495.9</ele>
        <time>2015-01-04T09:14:15Z</time>
      </trkpt>
      <trkpt lat="42.413463" lon="2.252740">
        <ele>2489.3</ele>
        <time>2015-01-04T09:14:36Z</time>
      </trkpt>
      <trkpt lat="42.413538" lon="2.252765">
        <ele>2486.4</ele>
        <time>2015-01-04T09:14:55Z</time>
      </trkpt>
      <trkpt lat="42.413568" lon="2.252768">
        <ele>2490.4</ele>
        <time>2015-01-04T09:15:00Z</time>
      </trkpt>
      <trkpt lat="42.413581" lon="2.252761">
        <ele>2492.8</ele>
        <time>2015-01-04T09:15:04Z</time>
      </trkpt>
      <trkpt lat="42.413584" lon="2.252757">
        <ele>2489.5</ele>
        <time>2015-01-04T09:15:09Z</time>
      </trkpt>
      <trkpt lat="42.413604" lon="2.252758">
        <ele>2486.2</ele>
        <time>2015-01-04T09:15:12Z</time>
      </trkpt>
      <trkpt lat="42.413685" lon="2.252771">
        <ele>2478.2</ele>
        <time>2015-01-04T09:15:37Z</time>
      </trkpt>
      <trkpt lat="42.413819" lon="2.252765">
        <ele>2473.9</ele>
        <time>2015-01-04T09:16:04Z</time>
      </trkpt>
      <trkpt lat="42.413846" lon="2.252763">
        <ele>2470.3</ele>
        <time>2015-01-04T09:16:08Z</time>
      </trkpt>
      <trkpt lat="42.413877" lon="2.252765">
        <ele>2467.2</ele>
        <time>2015-01-04T09:16:14Z</time>
      </trkpt>
      <trkpt lat="42.413942" lon="2.252739">
        <ele>2464.0</ele>
        <time>2015-01-04T09:16:25Z</time>
      </trkpt>
      <trkpt lat="42.414018" lon="2.252700">
        <ele>2460.8</ele>
        <time>2015-01-04T09:16:38Z</time>
      </trkpt>
      <trkpt lat="42.414026" lon="2.252702">
        <ele>2457.5</ele>
        <time>2015-01-04T09:16:44Z</time>
      </trkpt>
      <trkpt lat="42.414058" lon="2.252705">
        <ele>2455.2</ele>
        <time>2015-01-04T09:16:52Z</time>
      </trkpt>
      <trkpt lat="42.414083" lon="2.252697">
        <ele>2452.0</ele>
        <time>2015-01-04T09:16:57Z</time>
      </trkpt>
      <trkpt lat="42.414116" lon="2.252697">
        <ele>2448.6</ele>
        <time>2015-01-04T09:17:04Z</time>
      </trkpt>
      <trkpt lat="42.414167" lon="2.252682">
        <ele>2448.3</ele>
        <time>2015-01-04T09:17:21Z</time>
      </trkpt>
      <trkpt lat="42.414184" lon="2.252668">
        <ele>2451.5</ele>
        <time>2015-01-04T09:17:31Z</time>
      </trkpt>
      <trkpt lat="42.414256" lon="2.252691">
        <ele>2452.1</ele>
        <time>2015-01-04T09:17:54Z</time>
      </trkpt>
      <trkpt lat="42.414260" lon="2.252684">
        <ele>2449.1</ele>
        <time>2015-01-04T09:18:00Z</time>
      </trkpt>
      <trkpt lat="42.414272" lon="2.252685">
        <ele>2446.2</ele>
        <time>2015-01-04T09:18:05Z</time>
      </trkpt>
      <trkpt lat="42.414320" lon="2.252660">
        <ele>2441.9</ele>
        <time>2015-01-04T09:18:10Z</time>
      </trkpt>
      <trkpt lat="42.414366" lon="2.252644">
        <ele>2438.7</ele>
        <time>2015-01-04T09:18:17Z</time>
      </trkpt>
      <trkpt lat="42.414445" lon="2.252635">
        <ele>2432.3</ele>
        <time>2015-01-04T09:18:38Z</time>
      </trkpt>
      <trkpt lat="42.414504" lon="2.252607">
        <ele>2429.2</ele>
        <time>2015-01-04T09:18:45Z</time>
      </trkpt>
      <trkpt lat="42.414618" lon="2.252578">
        <ele>2426.2</ele>
        <time>2015-01-04T09:18:57Z</time>
      </trkpt>
      <trkpt lat="42.414660" lon="2.252587">
        <ele>2422.9</ele>
        <time>2015-01-04T09:19:02Z</time>
      </trkpt>
      <trkpt lat="42.414682" lon="2.252588">
        <ele>2419.9</ele>
        <time>2015-01-04T09:19:10Z</time>
      </trkpt>
      <trkpt lat="42.414701" lon="2.252603">
        <ele>2416.8</ele>
        <time>2015-01-04T09:19:22Z</time>
      </trkpt>
      <trkpt lat="42.414803" lon="2.252615">
        <ele>2415.7</ele>
        <time>2015-01-04T09:19:42Z</time>
      </trkpt>
      <trkpt lat="42.414943" lon="2.252601">
        <ele>2389.7</ele>
        <time>2015-01-04T09:22:56Z</time>
      </trkpt>
      <trkpt lat="42.415081" lon="2.252652">
        <ele>2387.1</ele>
        <time>2015-01-04T09:23:17Z</time>
      </trkpt>
      <trkpt lat="42.415091" lon="2.252628">
        <ele>2384.0</ele>
        <time>2015-01-04T09:23:26Z</time>
      </trkpt>
      <trkpt lat="42.415110" lon="2.252622">
        <ele>2380.6</ele>
        <time>2015-01-04T09:23:32Z</time>
      </trkpt>
      <trkpt lat="42.415119" lon="2.252622">
        <ele>2379.5</ele>
        <time>2015-01-04T09:23:34Z</time>
      </trkpt>
      <trkpt lat="42.415169" lon="2.252617">
        <ele>2376.0</ele>
        <time>2015-01-04T09:23:43Z</time>
      </trkpt>
      <trkpt lat="42.415226" lon="2.252616">
        <ele>2372.8</ele>
        <time>2015-01-04T09:23:51Z</time>
      </trkpt>
      <trkpt lat="42.415274" lon="2.252625">
        <ele>2369.8</ele>
        <time>2015-01-04T09:23:58Z</time>
      </trkpt>
      <trkpt lat="42.415318" lon="2.252617">
        <ele>2366.7</ele>
        <time>2015-01-04T09:24:04Z</time>
      </trkpt>
      <trkpt lat="42.415436" lon="2.252608">
        <ele>2363.4</ele>
        <time>2015-01-04T09:24:19Z</time>
      </trkpt>
      <trkpt lat="42.415456" lon="2.252610">
        <ele>2362.1</ele>
        <time>2015-01-04T09:24:22Z</time>
      </trkpt>
      <trkpt lat="42.415508" lon="2.252640">
        <ele>2358.8</ele>
        <time>2015-01-04T09:24:29Z</time>
      </trkpt>
      <trkpt lat="42.415558" lon="2.252653">
        <ele>2355.1</ele>
        <time>2015-01-04T09:24:37Z</time>
      </trkpt>
      <trkpt lat="42.415624" lon="2.252655">
        <ele>2351.2</ele>
        <time>2015-01-04T09:24:45Z</time>
      </trkpt>
      <trkpt lat="42.415656" lon="2.252674">
        <ele>2348.5</ele>
        <time>2015-01-04T09:24:50Z</time>
      </trkpt>
      <trkpt lat="42.415720" lon="2.252726">
        <ele>2345.1</ele>
        <time>2015-01-04T09:24:59Z</time>
      </trkpt>
      <trkpt lat="42.415767" lon="2.252765">
        <ele>2342.1</ele>
        <time>2015-01-04T09:25:05Z</time>
      </trkpt>
      <trkpt lat="42.415831" lon="2.252827">
        <ele>2339.0</ele>
        <time>2015-01-04T09:25:15Z</time>
      </trkpt>
      <trkpt lat="42.415923" lon="2.252914">
        <ele>2335.7</ele>
        <time>2015-01-04T09:25:28Z</time>
      </trkpt>
      <trkpt lat="42.415992" lon="2.252975">
        <ele>2331.9</ele>
        <time>2015-01-04T09:25:38Z</time>
      </trkpt>
      <trkpt lat="42.416017" lon="2.253010">
        <ele>2329.2</ele>
        <time>2015-01-04T09:25:44Z</time>
      </trkpt>
      <trkpt lat="42.416088" lon="2.253075">
        <ele>2325.5</ele>
        <time>2015-01-04T09:25:54Z</time>
      </trkpt>
      <trkpt lat="42.416156" lon="2.253104">
        <ele>2322.3</ele>
        <time>2015-01-04T09:26:04Z</time>
      </trkpt>
      <trkpt lat="42.416193" lon="2.253126">
        <ele>2318.8</ele>
        <time>2015-01-04T09:26:11Z</time>
      </trkpt>
      <trkpt lat="42.416241" lon="2.253156">
        <ele>2315.7</ele>
        <time>2015-01-04T09:26:17Z</time>
      </trkpt>
      <trkpt lat="42.416355" lon="2.253227">
        <ele>2313.7</ele>
        <time>2015-01-04T09:26:33Z</time>
      </trkpt>
      <trkpt lat="42.416400" lon="2.253274">
        <ele>2310.2</ele>
        <time>2015-01-04T09:26:40Z</time>
      </trkpt>
      <trkpt lat="42.416498" lon="2.253327">
        <ele>2307.2</ele>
        <time>2015-01-04T09:26:52Z</time>
      </trkpt>
      <trkpt lat="42.416526" lon="2.253356">
        <ele>2304.1</ele>
        <time>2015-01-04T09:26:56Z</time>
      </trkpt>
      <trkpt lat="42.416583" lon="2.253376">
        <ele>2301.0</ele>
        <time>2015-01-04T09:27:03Z</time>
      </trkpt>
      <trkpt lat="42.416653" lon="2.253389">
        <ele>2298.0</ele>
        <time>2015-01-04T09:27:12Z</time>
      </trkpt>
      <trkpt lat="42.416746" lon="2.253441">
        <ele>2294.9</ele>
        <time>2015-01-04T09:27:24Z</time>
      </trkpt>
      <trkpt lat="42.416819" lon="2.253501">
        <ele>2291.3</ele>
        <time>2015-01-04T09:27:33Z</time>
      </trkpt>
      <trkpt lat="42.416923" lon="2.253560">
        <ele>2284.5</ele>
        <time>2015-01-04T09:35:02Z</time>
      </trkpt>
      <trkpt lat="42.417031" lon="2.253762">
        <ele>2281.1</ele>
        <time>2015-01-04T09:38:37Z</time>
      </trkpt>
      <trkpt lat="42.417155" lon="2.253872">
        <ele>2277.5</ele>
        <time>2015-01-04T09:38:48Z</time>
      </trkpt>
      <trkpt lat="42.417228" lon="2.253934">
        <ele>2274.4</ele>
        <time>2015-01-04T09:38:56Z</time>
      </trkpt>
      <trkpt lat="42.417300" lon="2.253999">
        <ele>2274.4</ele>
        <time>2015-01-04T09:39:13Z</time>
      </trkpt>
      <trkpt lat="42.417427" lon="2.254123">
        <ele>2275.6</ele>
        <time>2015-01-04T09:39:35Z</time>
      </trkpt>
      <trkpt lat="42.417497" lon="2.254285">
        <ele>2274.2</ele>
        <time>2015-01-04T09:39:53Z</time>
      </trkpt>
      <trkpt lat="42.417605" lon="2.254417">
        <ele>2272.4</ele>
        <time>2015-01-04T09:40:07Z</time>
      </trkpt>
      <trkpt lat="42.417647" lon="2.254506">
        <ele>2271.0</ele>
        <time>2015-01-04T09:40:12Z</time>
      </trkpt>
      <trkpt lat="42.417696" lon="2.254645">
        <ele>2269.5</ele>
        <time>2015-01-04T09:40:15Z</time>
      </trkpt>
      <trkpt lat="42.417749" lon="2.254751">
        <ele>2265.0</ele>
        <time>2015-01-04T09:40:25Z</time>
      </trkpt>
      <trkpt lat="42.417766" lon="2.254719">
        <ele>2264.0</ele>
        <time>2015-01-04T09:40:27Z</time>
      </trkpt>
      <trkpt lat="42.417786" lon="2.254716">
        <ele>2263.1</ele>
        <time>2015-01-04T09:40:29Z</time>
      </trkpt>
      <trkpt lat="42.417847" lon="2.254721">
        <ele>2260.8</ele>
        <time>2015-01-04T09:40:39Z</time>
      </trkpt>
      <trkpt lat="42.417862" lon="2.254738">
        <ele>2260.5</ele>
        <time>2015-01-04T09:40:41Z</time>
      </trkpt>
      <trkpt lat="42.417945" lon="2.254786">
        <ele>2257.0</ele>
        <time>2015-01-04T09:40:53Z</time>
      </trkpt>
      <trkpt lat="42.417967" lon="2.254803">
        <ele>2256.2</ele>
        <time>2015-01-04T09:40:55Z</time>
      </trkpt>
      <trkpt lat="42.418081" lon="2.254862">
        <ele>2252.8</ele>
        <time>2015-01-04T09:41:10Z</time>
      </trkpt>
      <trkpt lat="42.418174" lon="2.254975">
        <ele>2251.2</ele>
        <time>2015-01-04T09:41:20Z</time>
      </trkpt>
      <trkpt lat="42.418280" lon="2.255099">
        <ele>2248.3</ele>
        <time>2015-01-04T09:41:34Z</time>
      </trkpt>
      <trkpt lat="42.418360" lon="2.255154">
        <ele>2246.4</ele>
        <time>2015-01-04T09:41:44Z</time>
      </trkpt>
      <trkpt lat="42.418496" lon="2.255209">
        <ele>2243.1</ele>
        <time>2015-01-04T09:41:57Z</time>
      </trkpt>
      <trkpt lat="42.418547" lon="2.255279">
        <ele>2243.1</ele>
        <time>2015-01-04T09:42:03Z</time>
      </trkpt>
      <trkpt lat="42.418578" lon="2.255316">
        <ele>2243.1</ele>
        <time>2015-01-04T09:42:06Z</time>
      </trkpt>
      <trkpt lat="42.418714" lon="2.255362">
        <ele>2242.3</ele>
        <time>2015-01-04T09:42:23Z</time>
      </trkpt>
      <trkpt lat="42.418825" lon="2.255199">
        <ele>2243.6</ele>
        <time>2015-01-04T09:42:38Z</time>
      </trkpt>
      <trkpt lat="42.418856" lon="2.255192">
        <ele>2243.6</ele>
        <time>2015-01-04T09:42:42Z</time>
      </trkpt>
      <trkpt lat="42.418992" lon="2.255249">
        <ele>2243.8</ele>
        <time>2015-01-04T09:42:57Z</time>
      </trkpt>
      <trkpt lat="42.419098" lon="2.255326">
        <ele>2244.8</ele>
        <time>2015-01-04T09:43:14Z</time>
      </trkpt>
      <trkpt lat="42.419152" lon="2.255449">
        <ele>2246.0</ele>
        <time>2015-01-04T09:43:32Z</time>
      </trkpt>
      <trkpt lat="42.419272" lon="2.255503">
        <ele>2247.3</ele>
        <time>2015-01-04T09:43:48Z</time>
      </trkpt>
      <trkpt lat="42.419372" lon="2.255495">
        <ele>2248.2</ele>
        <time>2015-01-04T09:43:58Z</time>
      </trkpt>
      <trkpt lat="42.419437" lon="2.255738">
        <ele>2247.6</ele>
        <time>2015-01-04T09:44:17Z</time>
      </trkpt>
      <trkpt lat="42.419413" lon="2.255752">
        <ele>2247.8</ele>
        <time>2015-01-04T09:44:51Z</time>
      </trkpt>
      <trkpt lat="42.419426" lon="2.255744">
        <ele>2247.0</ele>
        <time>2015-01-04T09:45:22Z</time>
      </trkpt>
      <trkpt lat="42.419445" lon="2.255767">
        <ele>2247.7</ele>
        <time>2015-01-04T09:45:44Z</time>
      </trkpt>
      <trkpt lat="42.419445" lon="2.255826">
        <ele>2247.7</ele>
        <time>2015-01-04T09:45:50Z</time>
      </trkpt>
      <trkpt lat="42.419443" lon="2.255958">
        <ele>2246.3</ele>
        <time>2015-01-04T09:46:11Z</time>
      </trkpt>
      <trkpt lat="42.419441" lon="2.255973">
        <ele>2246.1</ele>
        <time>2015-01-04T09:46:43Z</time>
      </trkpt>
      <trkpt lat="42.419434" lon="2.255972">
        <ele>2244.3</ele>
        <time>2015-01-04T09:47:03Z</time>
      </trkpt>
      <trkpt lat="42.419428" lon="2.256068">
        <ele>2244.7</ele>
        <time>2015-01-04T09:47:33Z</time>
      </trkpt>
      <trkpt lat="42.419515" lon="2.256238">
        <ele>2244.2</ele>
        <time>2015-01-04T09:47:53Z</time>
      </trkpt>
      <trkpt lat="42.419569" lon="2.256376">
        <ele>2245.6</ele>
        <time>2015-01-04T09:48:09Z</time>
      </trkpt>
      <trkpt lat="42.419626" lon="2.256514">
        <ele>2245.5</ele>
        <time>2015-01-04T09:48:26Z</time>
      </trkpt>
      <trkpt lat="42.419701" lon="2.256670">
        <ele>2245.4</ele>
        <time>2015-01-04T09:48:43Z</time>
      </trkpt>
      <trkpt lat="42.419719" lon="2.256900">
        <ele>2244.5</ele>
        <time>2015-01-04T09:49:01Z</time>
      </trkpt>
      <trkpt lat="42.419745" lon="2.257099">
        <ele>2244.3</ele>
        <time>2015-01-04T09:49:16Z</time>
      </trkpt>
      <trkpt lat="42.419695" lon="2.257286">
        <ele>2242.5</ele>
        <time>2015-01-04T09:49:33Z</time>
      </trkpt>
      <trkpt lat="42.419705" lon="2.257406">
        <ele>2241.7</ele>
        <time>2015-01-04T09:49:48Z</time>
      </trkpt>
      <trkpt lat="42.419680" lon="2.257567">
        <ele>2238.5</ele>
        <time>2015-01-04T09:50:03Z</time>
      </trkpt>
      <trkpt lat="42.419673" lon="2.257594">
        <ele>2238.1</ele>
        <time>2015-01-04T09:50:05Z</time>
      </trkpt>
      <trkpt lat="42.419634" lon="2.257758">
        <ele>2236.2</ele>
        <time>2015-01-04T09:50:24Z</time>
      </trkpt>
      <trkpt lat="42.419633" lon="2.257764">
        <ele>2236.1</ele>
        <time>2015-01-04T09:50:37Z</time>
      </trkpt>
      <trkpt lat="42.419604" lon="2.257783">
        <ele>2235.0</ele>
        <time>2015-01-04T09:50:56Z</time>
      </trkpt>
      <trkpt lat="42.419597" lon="2.257768">
        <ele>2234.7</ele>
        <time>2015-01-04T09:51:40Z</time>
      </trkpt>
      <trkpt lat="42.419605" lon="2.257781">
        <ele>2233.6</ele>
        <time>2015-01-04T09:51:51Z</time>
      </trkpt>
      <trkpt lat="42.419636" lon="2.257906">
        <ele>2231.9</ele>
        <time>2015-01-04T09:52:06Z</time>
      </trkpt>
      <trkpt lat="42.419690" lon="2.257936">
        <ele>2230.5</ele>
        <time>2015-01-04T09:52:18Z</time>
      </trkpt>
      <trkpt lat="42.419851" lon="2.257934">
        <ele>2231.5</ele>
        <time>2015-01-04T09:52:36Z</time>
      </trkpt>
      <trkpt lat="42.419942" lon="2.257913">
        <ele>2232.4</ele>
        <time>2015-01-04T09:52:49Z</time>
      </trkpt>
      <trkpt lat="42.419988" lon="2.258012">
        <ele>2229.3</ele>
        <time>2015-01-04T09:53:00Z</time>
      </trkpt>
      <trkpt lat="42.420053" lon="2.258092">
        <ele>2226.1</ele>
        <time>2015-01-04T09:53:10Z</time>
      </trkpt>
      <trkpt lat="42.420108" lon="2.258174">
        <ele>2223.1</ele>
        <time>2015-01-04T09:53:21Z</time>
      </trkpt>
      <trkpt lat="42.420121" lon="2.258183">
        <ele>2222.2</ele>
        <time>2015-01-04T09:53:23Z</time>
      </trkpt>
      <trkpt lat="42.420202" lon="2.258246">
        <ele>2218.7</ele>
        <time>2015-01-04T09:53:34Z</time>
      </trkpt>
      <trkpt lat="42.420238" lon="2.258301">
        <ele>2215.6</ele>
        <time>2015-01-04T09:53:44Z</time>
      </trkpt>
      <trkpt lat="42.420284" lon="2.258398">
        <ele>2212.4</ele>
        <time>2015-01-04T09:53:58Z</time>
      </trkpt>
      <trkpt lat="42.420323" lon="2.258448">
        <ele>2209.9</ele>
        <time>2015-01-04T09:54:05Z</time>
      </trkpt>
      <trkpt lat="42.420310" lon="2.258538">
        <ele>2206.2</ele>
        <time>2015-01-04T09:54:14Z</time>
      </trkpt>
      <trkpt lat="42.420350" lon="2.258791">
        <ele>2195.2</ele>
        <time>2015-01-04T09:54:46Z</time>
      </trkpt>
      <trkpt lat="42.420392" lon="2.258948">
        <ele>2191.6</ele>
        <time>2015-01-04T09:55:01Z</time>
      </trkpt>
      <trkpt lat="42.420498" lon="2.259217">
        <ele>2185.4</ele>
        <time>2015-01-04T10:00:53Z</time>
      </trkpt>
      <trkpt lat="42.420568" lon="2.259271">
        <ele>2182.3</ele>
        <time>2015-01-04T10:03:05Z</time>
      </trkpt>
      <trkpt lat="42.420568" lon="2.259307">
        <ele>2181.9</ele>
        <time>2015-01-04T10:03:07Z</time>
      </trkpt>
      <trkpt lat="42.420582" lon="2.259336">
        <ele>2181.5</ele>
        <time>2015-01-04T10:03:09Z</time>
      </trkpt>
      <trkpt lat="42.420589" lon="2.259391">
        <ele>2180.8</ele>
        <time>2015-01-04T10:03:12Z</time>
      </trkpt>
      <trkpt lat="42.420518" lon="2.259593">
        <ele>2178.2</ele>
        <time>2015-01-04T10:03:24Z</time>
      </trkpt>
      <trkpt lat="42.420521" lon="2.259617">
        <ele>2177.8</ele>
        <time>2015-01-04T10:03:26Z</time>
      </trkpt>
      <trkpt lat="42.420530" lon="2.259686">
        <ele>2177.5</ele>
        <time>2015-01-04T10:03:30Z</time>
      </trkpt>
      <trkpt lat="42.420552" lon="2.259727">
        <ele>2177.1</ele>
        <time>2015-01-04T10:03:33Z</time>
      </trkpt>
      <trkpt lat="42.420573" lon="2.259772">
        <ele>2176.7</ele>
        <time>2015-01-04T10:03:36Z</time>
      </trkpt>
      <trkpt lat="42.420577" lon="2.259826">
        <ele>2176.1</ele>
        <time>2015-01-04T10:03:40Z</time>
      </trkpt>
      <trkpt lat="42.420636" lon="2.259965">
        <ele>2175.9</ele>
        <time>2015-01-04T10:03:55Z</time>
      </trkpt>
      <trkpt lat="42.420656" lon="2.260094">
        <ele>2175.0</ele>
        <time>2015-01-04T10:04:03Z</time>
      </trkpt>
      <trkpt lat="42.420589" lon="2.260377">
        <ele>2173.8</ele>
        <time>2015-01-04T10:04:15Z</time>
      </trkpt>
      <trkpt lat="42.420655" lon="2.260475">
        <ele>2172.4</ele>
        <time>2015-01-04T10:04:23Z</time>
      </trkpt>
      <trkpt lat="42.420713" lon="2.260636">
        <ele>2169.6</ele>
        <time>2015-01-04T10:04:35Z</time>
      </trkpt>
      <trkpt lat="42.420718" lon="2.260687">
        <ele>2168.0</ele>
        <time>2015-01-04T10:04:39Z</time>
      </trkpt>
      <trkpt lat="42.420721" lon="2.260733">
        <ele>2167.2</ele>
        <time>2015-01-04T10:04:42Z</time>
      </trkpt>
      <trkpt lat="42.420767" lon="2.260844">
        <ele>2164.0</ele>
        <time>2015-01-04T10:04:54Z</time>
      </trkpt>
      <trkpt lat="42.420809" lon="2.260865">
        <ele>2161.0</ele>
        <time>2015-01-04T10:05:02Z</time>
      </trkpt>
      <trkpt lat="42.420851" lon="2.261016">
        <ele>2157.9</ele>
        <time>2015-01-04T10:05:15Z</time>
      </trkpt>
      <trkpt lat="42.420873" lon="2.261078">
        <ele>2156.5</ele>
        <time>2015-01-04T10:05:20Z</time>
      </trkpt>
      <trkpt lat="42.420893" lon="2.261160">
        <ele>2153.5</ele>
        <time>2015-01-04T10:05:28Z</time>
      </trkpt>
      <trkpt lat="42.420903" lon="2.261240">
        <ele>2151.1</ele>
        <time>2015-01-04T10:05:36Z</time>
      </trkpt>
      <trkpt lat="42.420896" lon="2.261281">
        <ele>2150.6</ele>
        <time>2015-01-04T10:05:40Z</time>
      </trkpt>
      <trkpt lat="42.420864" lon="2.261448">
        <ele>2147.1</ele>
        <time>2015-01-04T10:05:53Z</time>
      </trkpt>
      <trkpt lat="42.420828" lon="2.261546">
        <ele>2144.3</ele>
        <time>2015-01-04T10:06:06Z</time>
      </trkpt>
      <trkpt lat="42.420839" lon="2.261617">
        <ele>2138.1</ele>
        <time>2015-01-04T10:06:33Z</time>
      </trkpt>
      <trkpt lat="42.420846" lon="2.261619">
        <ele>2138.3</ele>
        <time>2015-01-04T10:06:50Z</time>
      </trkpt>
      <trkpt lat="42.420866" lon="2.261809">
        <ele>2132.9</ele>
        <time>2015-01-04T10:12:35Z</time>
      </trkpt>
      <trkpt lat="42.420812" lon="2.261929">
        <ele>2129.4</ele>
        <time>2015-01-04T10:12:50Z</time>
      </trkpt>
      <trkpt lat="42.420832" lon="2.262017">
        <ele>2126.4</ele>
        <time>2015-01-04T10:12:59Z</time>
      </trkpt>
      <trkpt lat="42.420816" lon="2.262062">
        <ele>2125.3</ele>
        <time>2015-01-04T10:13:20Z</time>
      </trkpt>
      <trkpt lat="42.420836" lon="2.262126">
        <ele>2124.9</ele>
        <time>2015-01-04T10:13:39Z</time>
      </trkpt>
      <trkpt lat="42.420874" lon="2.262190">
        <ele>2122.1</ele>
        <time>2015-01-04T10:13:57Z</time>
      </trkpt>
      <trkpt lat="42.420855" lon="2.262283">
        <ele>2120.1</ele>
        <time>2015-01-04T10:14:18Z</time>
      </trkpt>
      <trkpt lat="42.420861" lon="2.262318">
        <ele>2119.4</ele>
        <time>2015-01-04T10:14:21Z</time>
      </trkpt>
      <trkpt lat="42.420928" lon="2.262452">
        <ele>2116.4</ele>
        <time>2015-01-04T10:14:35Z</time>
      </trkpt>
      <trkpt lat="42.420992" lon="2.262580">
        <ele>2113.9</ele>
        <time>2015-01-04T10:14:49Z</time>
      </trkpt>
      <trkpt lat="42.421043" lon="2.262614">
        <ele>2112.9</ele>
        <time>2015-01-04T10:14:55Z</time>
      </trkpt>
      <trkpt lat="42.421125" lon="2.262810">
        <ele>2109.1</ele>
        <time>2015-01-04T10:15:18Z</time>
      </trkpt>
      <trkpt lat="42.421188" lon="2.262925">
        <ele>2107.0</ele>
        <time>2015-01-04T10:15:30Z</time>
      </trkpt>
      <trkpt lat="42.421206" lon="2.262940">
        <ele>2107.0</ele>
        <time>2015-01-04T10:15:32Z</time>
      </trkpt>
      <trkpt lat="42.421262" lon="2.263091">
        <ele>2106.6</ele>
        <time>2015-01-04T10:15:44Z</time>
      </trkpt>
      <trkpt lat="42.421304" lon="2.263194">
        <ele>2104.7</ele>
        <time>2015-01-04T10:15:54Z</time>
      </trkpt>
      <trkpt lat="42.421314" lon="2.263246">
        <ele>2103.4</ele>
        <time>2015-01-04T10:15:58Z</time>
      </trkpt>
      <trkpt lat="42.421366" lon="2.263434">
        <ele>2100.1</ele>
        <time>2015-01-04T10:16:12Z</time>
      </trkpt>
      <trkpt lat="42.421397" lon="2.263487">
        <ele>2098.8</ele>
        <time>2015-01-04T10:16:18Z</time>
      </trkpt>
      <trkpt lat="42.421400" lon="2.263646">
        <ele>2099.6</ele>
        <time>2015-01-04T10:16:28Z</time>
      </trkpt>
      <trkpt lat="42.421390" lon="2.263688">
        <ele>2099.3</ele>
        <time>2015-01-04T10:16:31Z</time>
      </trkpt>
      <trkpt lat="42.421439" lon="2.263797">
        <ele>2097.4</ele>
        <time>2015-01-04T10:16:41Z</time>
      </trkpt>
      <trkpt lat="42.421600" lon="2.263773">
        <ele>2099.2</ele>
        <time>2015-01-04T10:16:57Z</time>
      </trkpt>
      <trkpt lat="42.421836" lon="2.263867">
        <ele>2097.6</ele>
        <time>2015-01-04T10:17:37Z</time>
      </trkpt>
    </trkseg>
  </trk>
</gpx>

